Airfield :
LOGIN :

Register | Disclaimer

   EN    FR    IT 

 










Legend :    VFR   Marginal VFR   IFR   Intensive IFR   Very Intensive IFR
Visi :
Ceiling :
>= 8 km
>= 3000ft
5 to 8 km
1000 to 3000 ft
1500m to 5 km
500 to 1000 ft
800 to 1500m
200 to 500 ft
< 800m
< 200 ft
Symbols :   Thunderstorms  Fog  Heavy snow  Heavy precipitations  Wind > 20 kt
SIGMETs :     Misc.  Thunderstorms  Icing  Turbulence  Mountain Waves  Volcanic Ashes






- Airport Elevation : 62 ft
- IATA code : TAN


GMTT - Tanger Ibn Batouta

CURRENT METAR :
  • 051200Z 30014KT 9999 BKN020 13/05 Q1011 NOSIG

EXPIRED METARs :
  • 051130Z 30013KT 9999 BKN020 12/05 Q1011 NOSIG
  • 051100Z 31014KT 9999 BKN020 13/05 Q1011 NOSIG
  • 051030Z 30014KT 9999 BKN020 12/05 Q1011 NOSIG
  • 051000Z 31013KT 280V350 9999 BKN020 12/05 Q1011 NOSIG

TAF TAF GMTT
Valid from the 05 at 12:00 until the 06 at 18:00 UTC


051100Z 0512/0618 30014KT 9999 BKN020
BECMG 0519/0522 20009KT
TEMPO 0522/0606 1500 SHRA BKN016 SCT020TCU BKN026
TEMPO 0606/0618 4000 RA BKN016 BKN020



MET'MAP, your aeronautical weather chart ! - Copyright ORBIFLY December 2007 - Disclaimer

ORBIFLY MET'MAP TEAM :

Programming & Development : Alexandra Zaïnal
Concept & original design : Baudouin d'Aumeries
Assistance for programming : Marc-Olivier Méhu
Technical & hardware support : Manuel Goepfert

Contact : metmap@orbifly.com




SOURCES & CREDITS :

   NOAA